createdAt,value
2023-02-02T00:01:41.075Z,5.07
2023-02-02T00:04:10.441Z,5.38
2023-02-02T00:06:38.739Z,3.08
2023-02-02T00:09:07.126Z,4.30
2023-02-02T00:11:35.424Z,4.90
2023-02-02T00:14:03.644Z,4.03
2023-02-02T00:16:41.979Z,6.30
2023-02-02T00:19:13.660Z,7.35
2023-02-02T00:21:42.299Z,4.10
2023-02-02T00:24:12.147Z,4.78
2023-02-02T00:26:41.535Z,4.57
2023-02-02T00:29:14.462Z,5.70
2023-02-02T00:31:44.166Z,5.00
2023-02-02T00:34:13.457Z,5.80
2023-02-02T00:36:42.288Z,4.93
2023-02-02T00:39:11.826Z,5.53
2023-02-02T00:41:40.121Z,7.35
2023-02-02T00:44:41.400Z,7.10
2023-02-02T00:47:11.042Z,5.00
2023-02-02T00:49:39.315Z,5.07
2023-02-02T00:52:07.933Z,7.22
2023-02-02T00:54:36.218Z,4.40
2023-02-02T00:57:04.462Z,5.60
2023-02-02T00:59:32.718Z,4.15
2023-02-02T01:02:02.248Z,3.50
2023-02-02T01:04:32.105Z,4.15
2023-02-02T01:07:00.346Z,3.78
2023-02-02T01:09:28.632Z,4.47
2023-02-02T01:11:56.884Z,2.83
2023-02-02T01:14:25.619Z,3.65
2023-02-02T01:16:53.844Z,3.15
2023-02-02T01:19:22.068Z,3.60
2023-02-02T01:21:51.861Z,3.65
2023-02-02T01:24:20.096Z,2.72
2023-02-02T01:26:48.489Z,3.05
2023-02-02T01:29:16.821Z,5.45
2023-02-02T01:31:45.117Z,2.38
2023-02-02T01:34:13.386Z,5.43
2023-02-02T01:36:41.677Z,3.97
2023-02-02T01:39:11.304Z,5.07
2023-02-02T01:41:41.316Z,3.70
2023-02-02T01:44:42.689Z,3.45
2023-02-02T01:47:11.090Z,4.13
2023-02-02T01:49:40.862Z,5.03
2023-02-02T01:52:11.435Z,4.80
2023-02-02T01:54:43.779Z,2.55
2023-02-02T01:57:16.314Z,5.80
2023-02-02T01:59:47.066Z,2.58
2023-02-02T02:02:15.574Z,4.03
2023-02-02T02:04:43.907Z,2.88
2023-02-02T02:07:12.992Z,4.72
2023-02-02T02:09:42.725Z,4.07
2023-02-02T02:12:15.559Z,2.65
2023-02-02T02:15:03.905Z,5.07
2023-02-02T02:17:50.605Z,5.57
2023-02-02T02:21:01.800Z,4.50
2023-02-02T02:24:26.869Z,3.00
2023-02-02T02:27:35.287Z,5.13
2023-02-02T02:30:42.837Z,4.15
2023-02-02T02:33:17.242Z,3.23
2023-02-02T02:35:56.088Z,4.18
2023-02-02T02:38:31.849Z,6.35
2023-02-02T02:41:04.865Z,4.97
2023-02-02T02:43:35.704Z,3.30
2023-02-02T02:46:04.947Z,3.88
2023-02-02T02:48:34.650Z,2.75
2023-02-02T02:51:10.428Z,3.72
2023-02-02T02:53:39.376Z,2.28
2023-02-02T02:56:18.310Z,3.40
2023-02-02T02:58:55.865Z,3.15
2023-02-02T03:01:33.666Z,6.90
2023-02-02T03:04:09.572Z,3.78
2023-02-02T03:06:43.855Z,2.72
2023-02-02T03:09:14.647Z,2.80
2023-02-02T03:11:43.269Z,2.97
2023-02-02T03:14:11.609Z,2.17
2023-02-02T03:16:40.363Z,3.50
2023-02-02T03:19:10.719Z,4.90
2023-02-02T03:21:39.011Z,6.78
2023-02-02T03:24:07.904Z,2.65
2023-02-02T03:26:36.684Z,4.00
2023-02-02T03:29:05.769Z,2.95
2023-02-02T03:31:34.130Z,3.00
2023-02-02T03:34:02.428Z,3.28
2023-02-02T03:36:32.080Z,1.88
2023-02-02T03:39:00.338Z,1.58
2023-02-02T03:41:28.589Z,2.58
2023-02-02T03:43:56.829Z,2.95
2023-02-02T03:46:25.114Z,1.92
2023-02-02T03:48:53.486Z,2.05
2023-02-02T03:51:21.739Z,3.08
2023-02-02T03:53:51.468Z,1.90
2023-02-02T03:56:20.421Z,1.90
2023-02-02T03:58:48.716Z,2.30
2023-02-02T04:01:17.010Z,3.10
2023-02-02T04:03:46.411Z,2.28
2023-02-02T04:06:14.732Z,1.92
2023-02-02T04:08:42.981Z,1.45
2023-02-02T04:11:12.963Z,2.20
2023-02-02T04:13:43.436Z,1.80
2023-02-02T04:16:12.114Z,1.97
2023-02-02T04:18:40.785Z,1.10
2023-02-02T04:21:09.754Z,2.92
2023-02-02T04:23:38.052Z,2.20
2023-02-02T04:26:06.813Z,1.85
2023-02-02T04:28:36.504Z,2.45
2023-02-02T04:31:05.036Z,1.67
2023-02-02T04:33:34.980Z,4.93
2023-02-02T04:36:03.271Z,1.38
2023-02-02T04:38:31.879Z,2.20
2023-02-02T04:41:07.825Z,3.10
2023-02-02T04:43:38.872Z,4.00
2023-02-02T04:46:07.611Z,2.42
2023-02-02T04:48:35.878Z,2.92
2023-02-02T04:51:06.226Z,3.92
2023-02-02T04:53:34.827Z,2.83
2023-02-02T04:56:07.516Z,2.95
2023-02-02T04:58:37.299Z,2.75
2023-02-02T05:01:10.748Z,2.10
2023-02-02T05:03:39.500Z,3.90
2023-02-02T05:06:08.211Z,3.63
2023-02-02T05:08:36.977Z,2.35
2023-02-02T05:11:09.671Z,2.28
2023-02-02T05:13:39.473Z,1.13
2023-02-02T05:16:08.630Z,1.70
2023-02-02T05:18:36.920Z,1.65
2023-02-02T05:21:05.544Z,1.70
2023-02-02T05:23:33.788Z,1.30
2023-02-02T05:26:02.065Z,2.00
2023-02-02T05:28:30.417Z,2.90
2023-02-02T05:31:00.166Z,2.25
2023-02-02T05:33:28.412Z,2.10
2023-02-02T05:35:56.671Z,1.33
2023-02-02T05:38:24.990Z,1.70
2023-02-02T05:40:53.238Z,1.85
2023-02-02T05:43:21.711Z,0.98
2023-02-02T05:45:50.039Z,4.90
2023-02-02T05:48:19.731Z,1.70
2023-02-02T05:50:56.869Z,0.60
2023-02-02T05:53:25.719Z,1.67
2023-02-02T05:55:53.988Z,1.87
2023-02-02T05:58:22.225Z,1.55
2023-02-02T06:00:50.601Z,0.90
2023-02-02T06:03:20.361Z,1.45
2023-02-02T06:05:49.142Z,4.00
2023-02-02T06:08:17.392Z,2.40
2023-02-02T06:10:45.704Z,2.25
2023-02-02T06:13:14.140Z,1.38
2023-02-02T06:15:43.377Z,1.42
2023-02-02T06:18:11.760Z,1.10
2023-02-02T06:20:41.663Z,1.33
2023-02-02T06:23:09.912Z,0.90
2023-02-02T06:25:38.209Z,3.10
2023-02-02T06:28:07.851Z,1.75
2023-02-02T06:30:36.481Z,2.27
2023-02-02T06:33:04.808Z,1.65
2023-02-02T06:35:33.024Z,2.20
2023-02-02T06:38:02.769Z,1.92
2023-02-02T06:40:31.026Z,2.55
2023-02-02T06:42:59.929Z,3.17
2023-02-02T06:45:29.090Z,2.17
2023-02-02T06:48:03.670Z,1.70
2023-02-02T06:50:31.891Z,2.07
2023-02-02T06:53:00.104Z,1.95
2023-02-02T06:55:29.712Z,2.53
2023-02-02T06:57:58.820Z,3.58
2023-02-02T07:00:28.178Z,2.58
2023-02-02T07:02:56.482Z,2.72
2023-02-02T07:05:25.405Z,4.03
2023-02-02T07:07:54.040Z,2.45
2023-02-02T07:11:14.414Z,3.90
2023-02-02T07:13:12.208Z,3.90
2023-02-02T07:15:40.674Z,2.55
2023-02-02T07:18:09.547Z,0.90
2023-02-02T07:20:37.821Z,1.98
2023-02-02T07:23:06.197Z,1.60
2023-02-02T07:25:34.443Z,2.00
2023-02-02T07:28:03.113Z,1.00
2023-02-02T07:30:33.419Z,2.42
2023-02-02T07:33:02.050Z,2.05
2023-02-02T07:35:30.389Z,1.60
2023-02-02T07:37:58.645Z,1.52
2023-02-02T07:40:26.926Z,3.10
2023-02-02T07:42:55.173Z,2.80
2023-02-02T07:45:26.783Z,3.17
2023-02-02T07:48:01.213Z,5.35
2023-02-02T07:50:31.063Z,1.92
2023-02-02T07:53:00.620Z,2.50
2023-02-02T07:55:29.156Z,3.40
2023-02-02T07:57:59.075Z,2.40
2023-02-02T08:00:27.750Z,2.53
2023-02-02T08:02:56.188Z,2.28
2023-02-02T08:05:26.266Z,0.80
2023-02-02T08:07:54.971Z,3.67
2023-02-02T08:10:23.235Z,3.03
2023-02-02T08:12:51.814Z,1.73
2023-02-02T08:15:20.112Z,1.85
2023-02-02T08:17:50.266Z,2.30
2023-02-02T08:20:18.708Z,4.13
2023-02-02T08:22:48.450Z,1.17
2023-02-02T08:25:16.969Z,2.45
2023-02-02T08:27:45.220Z,2.00
2023-02-02T08:30:14.720Z,3.25
2023-02-02T08:32:42.973Z,4.35
2023-02-02T08:35:11.783Z,3.92
2023-02-02T08:37:40.254Z,2.50
2023-02-02T08:40:11.997Z,3.50
2023-02-02T08:42:40.372Z,5.05
2023-02-02T08:46:00.451Z,1.67
2023-02-02T08:48:10.733Z,1.73
2023-02-02T08:50:40.367Z,3.70
2023-02-02T08:53:08.814Z,4.63
2023-02-02T08:55:38.615Z,3.80
2023-02-02T08:58:06.973Z,2.47
2023-02-02T09:00:35.213Z,6.05
2023-02-02T09:03:03.507Z,1.98
2023-02-02T09:05:31.822Z,4.47
2023-02-02T09:08:00.582Z,2.30
2023-02-02T09:10:32.021Z,3.83
2023-02-02T09:13:01.800Z,3.33
2023-02-02T09:15:30.199Z,6.80
2023-02-02T09:17:58.758Z,4.57
2023-02-02T09:20:26.983Z,3.15
2023-02-02T09:22:57.077Z,4.20
2023-02-02T09:25:27.785Z,4.63
2023-02-02T09:27:56.355Z,2.38
2023-02-02T09:30:25.985Z,3.65
2023-02-02T09:32:54.346Z,4.57
2023-02-02T09:35:23.246Z,2.35
2023-02-02T09:37:51.904Z,2.60
2023-02-02T09:40:21.329Z,3.58
2023-02-02T09:43:07.984Z,3.10
2023-02-02T09:45:47.062Z,6.15
2023-02-02T09:48:26.600Z,4.55
2023-02-02T09:50:57.872Z,5.00
2023-02-02T09:53:43.240Z,3.10
2023-02-02T09:56:26.140Z,4.30
2023-02-02T09:58:57.781Z,5.03
2023-02-02T10:01:36.590Z,4.65
2023-02-02T10:04:27.581Z,2.42
2023-02-02T10:06:58.240Z,3.05
2023-02-02T10:09:35.335Z,4.32
2023-02-02T10:12:17.052Z,6.25
2023-02-02T10:14:51.953Z,5.03
2023-02-02T10:17:40.101Z,3.55
2023-02-02T10:20:25.176Z,5.47
2023-02-02T10:22:57.429Z,4.60
2023-02-02T10:25:29.071Z,2.47
2023-02-02T10:28:02.285Z,4.55
2023-02-02T10:30:38.359Z,4.03
2023-02-02T10:33:16.986Z,2.90
2023-02-02T10:35:52.883Z,2.30
2023-02-02T10:38:33.293Z,3.30
2023-02-02T10:41:08.365Z,3.97
2023-02-02T10:43:59.961Z,2.53
2023-02-02T10:46:35.236Z,3.58
2023-02-02T10:49:17.665Z,3.90
2023-02-02T10:51:50.686Z,2.92
2023-02-02T10:54:55.471Z,3.40
2023-02-02T10:57:44.167Z,5.97
2023-02-02T11:00:22.953Z,4.20
2023-02-02T11:02:53.344Z,2.80
2023-02-02T11:05:42.231Z,4.00
2023-02-02T11:08:15.799Z,3.08
2023-02-02T11:10:46.364Z,1.98
2023-02-02T11:13:20.640Z,6.10
2023-02-02T11:15:48.962Z,2.00
2023-02-02T11:18:29.866Z,3.13
2023-02-02T11:20:59.586Z,3.35
2023-02-02T11:23:32.115Z,3.28
2023-02-02T11:26:05.398Z,3.83
2023-02-02T11:28:36.807Z,2.72
2023-02-02T11:31:05.275Z,1.80
2023-02-02T11:33:35.198Z,2.17
2023-02-02T11:36:07.413Z,2.60
2023-02-02T11:38:35.697Z,3.22
2023-02-02T11:41:07.091Z,1.90
2023-02-02T11:43:41.395Z,1.90
2023-02-02T11:46:20.701Z,2.15
2023-02-02T11:48:52.358Z,1.88
2023-02-02T11:51:25.998Z,2.40
2023-02-02T11:54:05.202Z,2.30
2023-02-02T11:56:35.451Z,1.92
2023-02-02T11:59:05.600Z,3.42
2023-02-02T12:01:36.187Z,3.77
2023-02-02T12:04:22.621Z,2.03
2023-02-02T12:06:52.322Z,2.20
2023-02-02T12:09:28.403Z,2.97
2023-02-02T12:12:04.232Z,1.13
2023-02-02T12:14:44.888Z,1.80
2023-02-02T12:17:29.344Z,2.25
2023-02-02T12:20:08.832Z,2.47
2023-02-02T12:22:59.739Z,4.40
2023-02-02T12:25:55.968Z,2.20
2023-02-02T12:28:35.246Z,2.30
2023-02-02T12:31:10.670Z,4.00
2023-02-02T12:33:47.387Z,3.47
2023-02-02T12:36:36.042Z,2.70
2023-02-02T12:39:27.804Z,2.40
2023-02-02T12:42:23.849Z,1.98
2023-02-02T12:45:13.320Z,3.55
2023-02-02T12:47:50.214Z,1.27
2023-02-02T12:50:28.474Z,1.98
2023-02-02T12:53:21.662Z,2.22
2023-02-02T12:56:02.405Z,2.60
2023-02-02T12:58:39.673Z,2.03
2023-02-02T13:01:19.374Z,5.07
2023-02-02T13:04:13.849Z,3.85
2023-02-02T13:07:05.585Z,3.08
2023-02-02T13:09:42.162Z,1.88
2023-02-02T13:12:14.417Z,2.05
2023-02-02T13:14:47.218Z,2.13
2023-02-02T13:17:19.580Z,2.40
2023-02-02T13:19:53.920Z,2.58
2023-02-02T13:22:26.321Z,3.43
2023-02-02T13:24:58.536Z,2.13
2023-02-02T13:27:31.770Z,2.97
2023-02-02T13:30:06.352Z,2.05
2023-02-02T13:32:37.433Z,2.65
2023-02-02T13:35:15.879Z,2.88
2023-02-02T13:37:50.730Z,3.17
2023-02-02T13:40:27.227Z,7.00
2023-02-02T13:43:07.120Z,2.63
2023-02-02T13:45:45.323Z,1.63
2023-02-02T13:48:21.394Z,3.70
2023-02-02T13:51:05.062Z,2.55
2023-02-02T13:53:48.386Z,3.22
2023-02-02T13:56:40.976Z,1.83
2023-02-02T13:59:42.327Z,2.72
2023-02-02T14:02:23.839Z,4.70
2023-02-02T14:04:57.123Z,3.92
2023-02-02T14:07:31.950Z,2.30
2023-02-02T14:10:00.471Z,3.35
2023-02-02T14:12:34.185Z,1.80
2023-02-02T14:15:04.302Z,3.27
2023-02-02T14:17:56.231Z,1.80
2023-02-02T14:20:49.001Z,2.35
2023-02-02T14:23:51.312Z,2.80
2023-02-02T14:26:40.796Z,3.55
2023-02-02T14:29:37.165Z,2.53
2023-02-02T14:32:31.004Z,3.03
2023-02-02T14:35:00.574Z,1.90
2023-02-02T14:37:51.507Z,2.20
2023-02-02T14:40:39.920Z,3.10
2023-02-02T14:43:36.779Z,4.18
2023-02-02T14:46:26.331Z,2.33
2023-02-02T14:49:18.384Z,1.57
2023-02-02T14:52:01.396Z,2.17
2023-02-02T14:54:37.188Z,3.33
2023-02-02T14:57:21.230Z,2.00
2023-02-02T14:59:49.819Z,2.22
2023-02-02T15:02:23.361Z,2.95
2023-02-02T15:04:53.335Z,3.20
2023-02-02T15:07:55.033Z,3.50
2023-02-02T15:10:58.695Z,4.15
2023-02-02T15:13:29.906Z,2.60
2023-02-02T15:16:09.880Z,2.55
2023-02-02T15:18:44.846Z,2.45
2023-02-02T15:21:21.989Z,2.60
2023-02-02T15:23:50.776Z,2.92
2023-02-02T15:26:24.316Z,3.53
2023-02-02T15:28:56.091Z,3.38
2023-02-02T15:31:30.958Z,4.67
2023-02-02T15:34:02.636Z,2.60
2023-02-02T15:36:34.694Z,3.80
2023-02-02T15:39:09.736Z,2.15
2023-02-02T15:41:43.690Z,3.97
2023-02-02T15:44:20.648Z,8.37
2023-02-02T15:46:50.032Z,2.27
2023-02-02T15:49:34.833Z,4.85
2023-02-02T15:52:12.175Z,3.50
2023-02-02T15:54:49.525Z,4.78
2023-02-02T15:57:30.880Z,3.20
2023-02-02T16:00:00.450Z,3.70
2023-02-02T16:02:35.795Z,5.10
2023-02-02T16:05:04.109Z,2.35
2023-02-02T16:07:34.897Z,7.03
2023-02-02T16:10:05.857Z,5.00
2023-02-02T16:12:35.448Z,8.70
2023-02-02T16:15:03.752Z,4.30
2023-02-02T16:17:36.498Z,7.60
2023-02-02T16:20:08.862Z,5.93
2023-02-02T16:22:40.120Z,3.38
2023-02-02T16:25:11.108Z,8.20
2023-02-02T16:27:42.149Z,5.97
2023-02-02T16:30:23.121Z,4.07
2023-02-02T16:32:51.438Z,7.60
2023-02-02T16:35:33.624Z,8.35
2023-02-02T16:38:17.016Z,7.50
2023-02-02T16:40:45.566Z,7.00
2023-02-02T16:43:19.443Z,7.13
2023-02-02T16:45:50.586Z,6.75
2023-02-02T16:48:32.614Z,5.68
2023-02-02T16:51:27.150Z,6.97
2023-02-02T16:54:03.220Z,4.32
2023-02-02T16:56:34.706Z,4.93
2023-02-02T16:59:07.407Z,5.10
2023-02-02T17:01:42.044Z,5.80
2023-02-02T17:04:20.101Z,6.03
2023-02-02T17:06:52.863Z,6.53
2023-02-02T17:09:35.189Z,5.32
2023-02-02T17:12:10.652Z,4.55
2023-02-02T17:14:53.237Z,4.87
2023-02-02T17:17:21.530Z,4.70
2023-02-02T17:19:50.420Z,7.72
2023-02-02T17:22:22.082Z,7.63
2023-02-02T17:24:53.387Z,7.07
2023-02-02T17:27:28.862Z,3.95
2023-02-02T17:29:58.001Z,12.17
2023-02-02T17:32:26.984Z,6.85
2023-02-02T17:34:55.237Z,7.38
2023-02-02T17:37:23.581Z,6.22
2023-02-02T17:39:54.488Z,9.05
2023-02-02T17:42:27.335Z,6.55
2023-02-02T17:44:55.605Z,8.83
2023-02-02T17:47:23.846Z,7.03
2023-02-02T17:49:52.128Z,8.65
2023-02-02T17:52:20.354Z,3.78
2023-02-02T17:54:48.612Z,5.72
2023-02-02T17:57:18.472Z,4.25
2023-02-02T17:59:46.811Z,5.70
2023-02-02T18:02:17.701Z,3.78
2023-02-02T18:04:45.987Z,7.93
2023-02-02T18:07:14.315Z,5.03
2023-02-02T18:09:42.630Z,4.43
2023-02-02T18:12:10.961Z,3.88
2023-02-02T18:14:40.790Z,5.43
2023-02-02T18:17:09.424Z,5.32
2023-02-02T18:19:39.300Z,4.25
2023-02-02T18:22:07.589Z,3.83
2023-02-02T18:24:35.837Z,3.83
2023-02-02T18:27:04.124Z,4.90
2023-02-02T18:29:32.474Z,7.13
2023-02-02T18:32:02.836Z,6.27
2023-02-02T18:34:32.574Z,3.20
2023-02-02T18:37:00.790Z,5.00
2023-02-02T18:39:29.431Z,3.22
2023-02-02T18:41:57.920Z,2.65
2023-02-02T18:44:26.320Z,4.15
2023-02-02T18:46:54.589Z,5.97
2023-02-02T18:49:24.387Z,4.10
2023-02-02T18:51:52.614Z,4.05
2023-02-02T18:54:20.883Z,4.07
2023-02-02T18:56:49.123Z,6.25
2023-02-02T18:59:17.528Z,4.50
2023-02-02T19:01:46.012Z,3.75
2023-02-02T19:04:14.392Z,4.85
2023-02-02T19:07:01.571Z,5.05
2023-02-02T19:09:29.873Z,3.67
2023-02-02T19:11:58.231Z,3.45
2023-02-02T19:14:30.138Z,2.95
2023-02-02T19:17:07.294Z,7.40
2023-02-02T19:19:35.955Z,8.38
2023-02-02T19:22:16.864Z,10.43
2023-02-02T19:24:45.506Z,13.83
2023-02-02T19:27:18.423Z,19.45
2023-02-02T19:29:47.988Z,7.93
2023-02-02T19:32:20.859Z,6.60
2023-02-02T19:34:50.003Z,4.13
2023-02-02T19:37:25.178Z,8.90
2023-02-02T19:39:56.937Z,6.83
2023-02-02T19:42:25.626Z,7.90
2023-02-02T19:44:54.494Z,5.55
2023-02-02T19:47:28.096Z,6.18
2023-02-02T19:49:56.565Z,6.45
2023-02-02T19:52:27.422Z,6.07
2023-02-02T19:54:55.643Z,3.30
2023-02-02T19:57:34.358Z,7.45
2023-02-02T20:00:12.597Z,4.15
2023-02-02T20:02:57.238Z,4.47
2023-02-02T20:05:27.635Z,5.05
2023-02-02T20:08:03.071Z,9.55
2023-02-02T20:10:38.987Z,13.80
2023-02-02T20:13:17.342Z,10.57
2023-02-02T20:15:45.720Z,10.30
2023-02-02T20:18:19.521Z,5.97
2023-02-02T20:20:50.454Z,7.07
2023-02-02T20:23:33.047Z,6.05
2023-02-02T20:26:03.844Z,5.10
2023-02-02T20:28:42.104Z,7.57
2023-02-02T20:31:13.421Z,14.23
2023-02-02T20:33:43.855Z,6.10
2023-02-02T20:36:35.621Z,5.80
2023-02-02T20:39:23.868Z,4.28
2023-02-02T20:41:52.267Z,8.23
2023-02-02T20:44:20.503Z,3.53
2023-02-02T20:46:48.992Z,4.95
2023-02-02T20:49:17.586Z,6.35
2023-02-02T20:51:45.796Z,4.25
2023-02-02T20:54:15.413Z,4.78
2023-02-02T20:56:43.668Z,7.18
2023-02-02T20:59:11.911Z,6.63
2023-02-02T21:01:40.211Z,7.13
2023-02-02T21:04:08.854Z,7.07
2023-02-02T21:06:38.568Z,4.07
2023-02-02T21:09:08.626Z,5.27
2023-02-02T21:11:39.332Z,5.22
2023-02-02T21:14:07.685Z,6.40
2023-02-02T21:16:36.005Z,7.00
2023-02-02T21:19:04.586Z,6.70
2023-02-02T21:21:32.983Z,3.92
2023-02-02T21:24:01.419Z,6.38
2023-02-02T21:26:31.111Z,5.63
2023-02-02T21:29:00.890Z,8.57
2023-02-02T21:31:29.834Z,8.55
2023-02-02T21:33:58.074Z,5.43
2023-02-02T21:36:35.189Z,8.75
2023-02-02T21:39:22.882Z,7.57
2023-02-02T21:41:55.268Z,4.93
2023-02-02T21:44:24.939Z,4.22
2023-02-02T21:46:53.639Z,6.22
2023-02-02T21:49:23.549Z,4.40
2023-02-02T21:51:52.448Z,3.83
2023-02-02T21:54:25.075Z,6.23
2023-02-02T21:56:54.361Z,7.07
2023-02-02T21:59:26.969Z,7.05
2023-02-02T22:01:55.571Z,5.13
2023-02-02T22:04:25.169Z,7.70
2023-02-02T22:06:55.230Z,6.30
2023-02-02T22:09:25.580Z,6.10
2023-02-02T22:11:58.483Z,4.93
2023-02-02T22:14:37.869Z,6.20
2023-02-02T22:17:22.013Z,6.07
2023-02-02T22:19:52.427Z,7.53
2023-02-02T22:22:23.893Z,9.02
2023-02-02T22:24:59.578Z,8.65
2023-02-02T22:27:33.170Z,8.32
2023-02-02T22:30:15.374Z,8.93
2023-02-02T22:32:43.559Z,7.55
2023-02-02T22:35:12.071Z,10.43
2023-02-02T22:37:40.798Z,4.38
2023-02-02T22:40:10.647Z,5.90
2023-02-02T22:42:38.977Z,6.70
2023-02-02T22:45:09.927Z,13.00
2023-02-02T22:47:38.243Z,11.53
2023-02-02T22:50:07.360Z,5.60
2023-02-02T22:52:35.633Z,5.65
2023-02-02T22:55:03.898Z,7.33
2023-02-02T22:57:32.143Z,8.70
2023-02-02T23:00:00.430Z,10.77
2023-02-02T23:02:30.425Z,6.78
2023-02-02T23:04:58.741Z,9.77
2023-02-02T23:07:27.001Z,8.82
2023-02-02T23:09:55.287Z,7.53
2023-02-02T23:12:23.535Z,4.82
2023-02-02T23:14:51.831Z,6.82
2023-02-02T23:17:20.080Z,5.68
2023-02-02T23:19:49.916Z,7.43
2023-02-02T23:22:18.157Z,8.05
2023-02-02T23:24:46.459Z,9.20
2023-02-02T23:27:14.945Z,6.78
2023-02-02T23:29:43.249Z,6.90
2023-02-02T23:32:11.471Z,5.93
2023-02-02T23:34:39.687Z,7.20
2023-02-02T23:37:09.554Z,7.60
2023-02-02T23:39:37.925Z,5.73
2023-02-02T23:42:06.493Z,7.50
2023-02-02T23:44:34.830Z,9.93
2023-02-02T23:47:03.488Z,10.60
2023-02-02T23:49:33.236Z,7.00
2023-02-02T23:52:02.175Z,10.93
2023-02-02T23:54:32.597Z,10.65
2023-02-02T23:57:01.133Z,6.65
2023-02-02T23:59:29.534Z,6.10
